Time;durP1;ratioP1;P1;durP2;ratioP2;P2;SDS_P1;SDS_P2;PMS_P1;PMS_P2;Temp;Humidity;BMP_temperature;BMP_pressure;BME280_temperature;BME280_humidity;BME280_pressure;Samples;Min_cycle;Max_cycle;Signal;HPM_P1;HPM_P2
2022/03/29 00:00:00;;;;;;;;;;;14.20;54.60;14.40;99500.00;;;;341292;28;93772;-88
2022/03/29 00:00:13;;;;;;;;;;;14.20;54.70;14.40;99502.00;;;;339395;28;83369;-87
2022/03/29 00:00:24;;;;;;;;;;;14.20;54.70;14.40;99499.00;;;;341232;28;97074;-86
2022/03/29 00:00:38;;;;;;;;;;;14.20;54.50;14.30;99500.00;;;;340762;28;82494;-86
2022/03/29 00:00:50;;;;;;;;;;;14.20;54.30;14.40;99501.00;;;;339289;28;96397;-87
2022/03/29 00:01:02;;;;;;;;;;;14.20;54.30;14.40;99493.00;;;;339593;28;83369;-87
2022/03/29 00:01:14;;;;;;;;;;;14.20;54.20;14.40;99504.00;;;;341442;28;93556;-87
2022/03/29 00:01:28;;;;;;;;;;;14.20;54.20;14.40;99509.00;;;;340819;28;82352;-86
2022/03/29 00:01:40;;;;;;;;;;;14.20;54.30;14.40;99504.00;;;;338465;28;97806;-87
2022/03/29 00:01:52;;;;;;;;;;;14.10;54.30;14.40;99500.00;;;;340037;28;82555;-87
2022/03/29 00:02:05;;;;;;;;;;;14.20;54.30;14.40;99505.00;;;;337370;28;95117;-87
2022/03/29 00:02:17;;;;;;;;;;;14.10;54.10;14.40;99500.00;;;;339135;28;83543;-87
2022/03/29 00:02:29;;;;;;;;;;;14.10;54.20;14.40;99502.00;;;;339855;28;96706;-87
2022/03/29 00:02:40;;;;;;;;;;;14.10;54.30;14.30;99503.00;;;;340738;28;83390;-87
2022/03/29 00:02:52;;;;;;;;;;;14.10;54.40;14.30;99499.00;;;;340006;28;94161;-87
2022/03/29 00:03:05;;;;;;;;;;;14.10;54.40;14.30;99499.00;;;;340681;28;83480;-87
2022/03/29 00:03:17;;;;;;;;;;;14.10;54.40;14.20;99502.00;;;;340001;28;93624;-87
2022/03/29 00:03:29;;;;;;;;;;;14.10;54.30;14.30;99503.00;;;;339390;28;83403;-87
2022/03/29 00:03:40;;;;;;;;;;;14.10;54.40;14.30;99498.00;;;;338575;28;96633;-87
2022/03/29 00:03:52;;;;;;;;;;;14.10;54.50;14.30;99489.00;;;;337360;28;83547;-87
2022/03/29 00:04:04;;;;;;;;;;;14.10;54.50;14.30;99502.00;;;;335192;28;96744;-87
2022/03/29 00:04:16;;;;;;;;;;;14.10;54.40;14.30;99509.00;;;;337846;28;83413;-86
2022/03/29 00:04:28;;;;;;;;;;;14.10;54.20;14.30;99500.00;;;;337203;28;93987;-87
2022/03/29 00:04:40;;;;;;;;;;;14.10;54.10;14.30;99500.00;;;;337941;28;83504;-87
2022/03/29 00:04:52;;;;;;;;;;;14.10;54.10;14.30;99500.00;;;;336012;28;94622;-88
2022/03/29 00:05:04;;;;;;;;;;;14.10;54.20;14.30;99495.00;;;;340814;28;83416;-87
2022/03/29 00:05:16;;;;;;;;;;;14.10;54.30;14.40;99489.00;;;;340022;28;95723;-87
2022/03/29 00:05:28;;;;;;;;;;;14.10;54.10;14.40;99493.00;;;;338148;28;83355;-87
2022/03/29 00:05:40;;;;;;;;;;;14.00;54.10;14.40;99499.00;;;;339880;28;96366;-87
2022/03/29 00:05:51;;;;;;;;;;;14.10;54.10;14.40;99493.00;;;;342133;28;83375;-87
2022/03/29 00:06:03;;;;;;;;;;;14.10;54.20;14.40;99491.00;;;;338613;28;93487;-87
2022/03/29 00:06:15;;;;;;;;;;;14.10;54.40;14.40;99499.00;;;;339346;28;82573;-87
2022/03/29 00:06:27;;;;;;;;;;;14.10;54.40;14.40;99494.00;;;;339940;28;96968;-87
2022/03/29 00:06:39;;;;;;;;;;;14.10;54.30;14.40;99499.00;;;;340739;28;83402;-87
2022/03/29 00:06:50;;;;;;;;;;;14.10;54.20;14.40;99500.00;;;;340965;28;92723;-87
2022/03/29 00:07:02;;;;;;;;;;;14.10;54.30;14.30;99504.00;;;;340979;28;83419;-87
2022/03/29 00:07:14;;;;;;;;;;;14.10;54.60;14.30;99495.00;;;;339940;28;96535;-87
2022/03/29 00:07:26;;;;;;;;;;;14.10;54.90;14.40;99495.00;;;;340828;28;83351;-87
2022/03/29 00:07:38;;;;;;;;;;;14.10;54.70;14.40;99498.00;;;;339930;28;94436;-87
2022/03/29 00:07:49;;;;;;;;;;;14.10;54.60;14.40;99501.00;;;;340709;28;83367;-87
2022/03/29 00:08:02;;;;;;;;;;;14.10;54.50;14.40;99495.00;;;;339935;28;94364;-87
2022/03/29 00:08:13;;;;;;;;;;;14.10;54.70;14.40;99493.00;;;;340475;28;83418;-87
2022/03/29 00:08:25;;;;;;;;;;;14.10;54.70;14.40;99494.00;;;;340097;28;94140;-87
2022/03/29 00:08:37;;;;;;;;;;;14.10;55.00;14.30;99500.00;;;;339377;28;82605;-87
2022/03/29 00:08:49;;;;;;;;;;;14.10;55.20;14.30;99493.00;;;;339999;28;94233;-87
2022/03/29 00:09:01;;;;;;;;;;;14.00;55.10;14.30;99492.00;;;;340642;28;83479;-87
2022/03/29 00:09:12;;;;;;;;;;;14.00;55.20;14.20;99492.00;;;;338658;28;94180;-86
2022/03/29 00:09:24;;;;;;;;;;;14.00;55.20;14.30;99485.00;;;;340842;28;83351;-87
2022/03/29 00:09:36;;;;;;;;;;;14.00;55.20;14.30;99494.00;;;;339840;28;94340;-87
2022/03/29 00:09:48;;;;;;;;;;;14.10;54.90;14.30;99495.00;;;;339845;28;83334;-87
2022/03/29 00:10:01;;;;;;;;;;;14.00;54.90;14.20;99492.00;;;;337183;28;94368;-87
2022/03/29 00:10:13;;;;;;;;;;;14.00;55.00;14.20;99490.00;;;;339323;28;83368;-87
2022/03/29 00:10:25;;;;;;;;;;;14.00;55.00;14.20;99497.00;;;;337335;28;93186;-86
2022/03/29 00:10:37;;;;;;;;;;;14.00;55.10;14.30;99495.00;;;;338060;28;83403;-87
2022/03/29 00:10:49;;;;;;;;;;;14.00;55.00;14.20;99495.00;;;;337248;28;94161;-87
2022/03/29 00:11:00;;;;;;;;;;;14.00;55.20;14.20;99488.00;;;;340588;28;83513;-87
2022/03/29 00:11:13;;;;;;;;;;;14.00;55.40;14.20;99491.00;;;;342776;28;92331;-87
2022/03/29 00:11:24;;;;;;;;;;;14.00;55.40;14.20;99492.00;;;;340718;28;82464;-87
2022/03/29 00:11:36;;;;;;;;;;;14.00;55.60;14.20;99486.00;;;;341113;28;96113;-87
2022/03/29 00:11:48;;;;;;;;;;;14.00;55.50;14.30;99496.00;;;;342190;28;83296;-87
2022/03/29 00:12:00;;;;;;;;;;;14.00;55.10;14.30;99488.00;;;;339898;28;94398;-87
2022/03/29 00:12:11;;;;;;;;;;;14.00;55.00;14.30;99494.00;;;;339228;28;83476;-87
2022/03/29 00:12:23;;;;;;;;;;;14.00;55.00;14.30;99492.00;;;;339757;28;95800;-87
2022/03/29 00:12:35;;;;;;;;;;;14.00;55.20;14.30;99493.00;;;;341963;28;83437;-87
2022/03/29 00:12:50;;;;;;;;;;;14.00;55.30;14.30;99495.00;;;;339321;28;94176;-87
2022/03/29 00:13:02;;;;;;;;;;;14.00;55.50;14.30;99488.00;;;;338275;28;83362;-88
2022/03/29 00:13:14;;;;;;;;;;;14.00;55.60;14.20;99495.00;;;;337387;28;93033;-87
2022/03/29 00:13:25;;;;;;;;;;;14.00;55.70;14.30;99498.00;;;;339463;28;82515;-87
2022/03/29 00:13:37;;;;;;;;;;;14.00;55.90;14.30;99487.00;;;;338523;28;96597;-87
2022/03/29 00:13:49;;;;;;;;;;;14.00;55.60;14.30;99484.00;;;;339241;28;82431;-87
2022/03/29 00:14:02;;;;;;;;;;;14.00;55.40;14.30;99484.00;;;;338603;28;97338;-87
2022/03/29 00:14:14;;;;;;;;;;;14.00;55.40;14.30;99487.00;;;;339165;28;83446;-87
2022/03/29 00:14:26;;;;;;;;;;;14.00;55.20;14.30;99488.00;;;;339967;28;95907;-87
2022/03/29 00:14:38;;;;;;;;;;;14.00;55.10;14.40;99485.00;;;;339270;28;83654;-87
2022/03/29 00:14:49;;;;;;;;;;;14.00;55.20;14.30;99493.00;;;;338735;28;93791;-87
2022/03/29 00:15:03;;;;;;;;;;;14.00;55.30;14.40;99490.00;;;;339280;28;83543;-87
2022/03/29 00:15:14;;;;;;;;;;;14.00;55.10;14.40;99483.00;;;;338724;28;92956;-87
2022/03/29 00:15:28;;;;;;;;;;;14.00;55.00;14.30;99486.00;;;;338140;28;83285;-87
2022/03/29 00:15:40;;;;;;;;;;;14.00;55.10;14.30;99475.00;;;;337158;28;96122;-87
2022/03/29 00:15:52;;;;;;;;;;;14.00;55.10;14.30;99485.00;;;;338541;28;83798;-87
2022/03/29 00:16:04;;;;;;;;;;;14.00;55.10;14.40;99482.00;;;;338277;28;95966;-87
2022/03/29 00:16:16;;;;;;;;;;;14.00;55.00;14.40;99485.00;;;;337984;28;82491;-87
2022/03/29 00:16:29;;;;;;;;;;;14.00;55.00;14.40;99483.00;;;;338701;28;94331;-87
2022/03/29 00:16:40;;;;;;;;;;;14.00;55.10;14.40;99484.00;;;;340680;28;83137;-87
2022/03/29 00:16:53;;;;;;;;;;;14.00;55.10;14.30;99482.00;;;;341212;28;95742;-87
2022/03/29 00:17:05;;;;;;;;;;;14.00;55.30;14.40;99485.00;;;;342114;28;83379;-87
2022/03/29 00:17:17;;;;;;;;;;;14.00;55.20;14.50;99482.00;;;;341358;28;93179;-87
2022/03/29 00:17:29;;;;;;;;;;;14.00;55.30;14.40;99475.00;;;;342040;28;83775;-87
2022/03/29 00:17:40;;;;;;;;;;;14.00;55.20;14.40;99487.00;;;;339903;28;94073;-87
2022/03/29 00:17:52;;;;;;;;;;;14.00;55.20;14.40;99483.00;;;;340712;28;83414;-87
2022/03/29 00:18:04;;;;;;;;;;;14.00;55.20;14.30;99476.00;;;;341360;28;94317;-87
2022/03/29 00:18:16;;;;;;;;;;;14.00;55.30;14.20;99479.00;;;;342024;28;83491;-87
2022/03/29 00:18:28;;;;;;;;;;;14.00;55.30;14.30;99475.00;;;;340040;28;94180;-87
2022/03/29 00:18:39;;;;;;;;;;;14.00;55.30;14.40;99479.00;;;;340644;28;83316;-87
2022/03/29 00:18:51;;;;;;;;;;;14.00;55.10;14.50;99483.00;;;;337420;28;97791;-87
2022/03/29 00:19:03;;;;;;;;;;;14.00;55.10;14.50;99479.00;;;;339225;28;82471;-87
2022/03/29 00:19:15;;;;;;;;;;;14.00;55.20;14.50;99475.00;;;;338470;28;96358;-87
2022/03/29 00:19:27;;;;;;;;;;;14.00;55.20;14.50;99478.00;;;;339064;28;83427;-86
2022/03/29 00:19:38;;;;;;;;;;;14.00;55.10;14.40;99481.00;;;;339878;28;94084;-87
2022/03/29 00:19:50;;;;;;;;;;;14.00;55.10;14.40;99475.00;;;;340729;28;83511;-87
2022/03/29 00:20:03;;;;;;;;;;;14.00;54.80;14.40;99481.00;;;;339932;28;97204;-87
2022/03/29 00:20:15;;;;;;;;;;;14.00;54.70;14.40;99473.00;;;;337935;28;83372;-87
2022/03/29 00:20:27;;;;;;;;;;;14.00;54.60;14.30;99479.00;;;;337242;28;95979;-87
2022/03/29 00:20:39;;;;;;;;;;;14.00;54.60;14.20;99476.00;;;;339403;28;83545;-87
2022/03/29 00:20:51;;;;;;;;;;;14.00;54.80;14.20;99470.00;;;;340024;28;92829;-87
2022/03/29 00:21:03;;;;;;;;;;;14.00;54.90;14.20;99473.00;;;;339306;28;82443;-87
2022/03/29 00:21:15;;;;;;;;;;;14.00;54.90;14.30;99471.00;;;;338592;28;95098;-87
2022/03/29 00:21:26;;;;;;;;;;;14.00;54.80;14.40;99477.00;;;;339444;28;83335;-87
2022/03/29 00:21:38;;;;;;;;;;;14.00;54.80;14.40;99477.00;;;;338455;28;95048;-86
2022/03/29 00:21:50;;;;;;;;;;;14.00;54.80;14.30;99473.00;;;;338059;28;82667;-87
2022/03/29 00:22:02;;;;;;;;;;;14.00;54.70;14.30;99478.00;;;;337532;28;94351;-87
2022/03/29 00:22:14;;;;;;;;;;;14.00;54.80;14.30;99471.00;;;;339295;28;83430;-87
2022/03/29 00:22:26;;;;;;;;;;;14.00;55.10;14.30;99480.00;;;;337321;28;96133;-88
2022/03/29 00:22:38;;;;;;;;;;;14.00;55.20;14.40;99478.00;;;;339409;28;82440;-87
2022/03/29 00:22:50;;;;;;;;;;;14.00;55.00;14.30;99477.00;;;;338676;28;94150;-87
2022/03/29 00:23:03;;;;;;;;;;;14.00;55.00;14.30;99475.00;;;;339236;28;83484;-87
2022/03/29 00:23:15;;;;;;;;;;;14.00;54.90;14.30;99478.00;;;;339855;28;93767;-86
2022/03/29 00:23:26;;;;;;;;;;;14.00;54.80;14.40;99474.00;;;;340695;28;83511;-87
2022/03/29 00:23:38;;;;;;;;;;;14.00;54.80;14.40;99475.00;;;;338503;28;96863;-87
2022/03/29 00:23:50;;;;;;;;;;;14.00;54.70;14.40;99475.00;;;;340634;28;83529;-87
2022/03/29 00:24:02;;;;;;;;;;;14.00;54.70;14.40;99470.00;;;;339967;28;94514;-87
2022/03/29 00:24:14;;;;;;;;;;;14.00;54.60;14.50;99474.00;;;;339311;28;83425;-87
2022/03/29 00:24:25;;;;;;;;;;;14.00;54.50;14.50;99464.00;;;;338572;28;96196;-87
2022/03/29 00:24:37;;;;;;;;;;;14.00;54.40;14.50;99468.00;;;;340640;28;83376;-87
2022/03/29 00:24:49;;;;;;;;;;;14.00;54.40;14.50;99469.00;;;;338499;28;94784;-87
2022/03/29 00:25:01;;;;;;;;;;;14.00;54.40;14.50;99468.00;;;;338142;28;82553;-87
2022/03/29 00:25:14;;;;;;;;;;;14.00;54.30;14.40;99470.00;;;;338683;28;94179;-87
2022/03/29 00:25:26;;;;;;;;;;;14.00;54.30;14.40;99466.00;;;;338127;28;82382;-86
2022/03/29 00:25:37;;;;;;;;;;;14.00;54.30;14.40;99469.00;;;;337281;28;93144;-87
2022/03/29 00:25:49;;;;;;;;;;;14.00;54.40;14.50;99471.00;;;;335697;28;82326;-87
2022/03/29 00:26:02;;;;;;;;;;;14.00;54.30;14.40;99464.00;;;;337359;28;94482;-87
2022/03/29 00:26:15;;;;;;;;;;;14.00;54.30;14.30;99465.00;;;;339449;28;82388;-86
2022/03/29 00:26:27;;;;;;;;;;;14.00;54.20;14.30;99468.00;;;;339875;28;97587;-86
2022/03/29 00:26:39;;;;;;;;;;;14.00;54.20;14.30;99462.00;;;;341791;28;83391;-87
2022/03/29 00:26:50;;;;;;;;;;;14.00;54.20;14.50;99470.00;;;;339921;28;95962;-88
2022/03/29 00:27:02;;;;;;;;;;;14.00;54.40;14.40;99467.00;;;;339411;28;83445;-87
2022/03/29 00:27:15;;;;;;;;;;;14.00;54.40;14.40;99468.00;;;;334794;29;93508;-87
2022/03/29 00:27:26;;;;;;;;;;;14.00;54.40;14.40;99466.00;;;;339407;28;83295;-87
2022/03/29 00:27:38;;;;;;;;;;;14.00;54.40;14.40;99467.00;;;;339772;28;95994;-87
2022/03/29 00:27:50;;;;;;;;;;;14.00;54.40;14.50;99463.00;;;;340072;28;83562;-87
2022/03/29 00:28:02;;;;;;;;;;;14.00;54.40;14.40;99465.00;;;;339752;28;94165;-87
2022/03/29 00:28:14;;;;;;;;;;;14.00;54.60;14.40;99470.00;;;;339376;28;82414;-87
2022/03/29 00:28:26;;;;;;;;;;;14.00;54.50;14.50;99469.00;;;;341204;28;97360;-86
2022/03/29 00:28:37;;;;;;;;;;;14.00;54.40;14.40;99463.00;;;;342098;28;83423;-87
2022/03/29 00:28:49;;;;;;;;;;;14.00;54.50;14.40;99467.00;;;;339732;28;97239;-87
2022/03/29 00:29:01;;;;;;;;;;;14.00;54.40;14.30;99466.00;;;;339453;28;82480;-86
2022/03/29 00:29:13;;;;;;;;;;;14.00;54.50;14.30;99466.00;;;;338707;28;93469;-86
2022/03/29 00:29:25;;;;;;;;;;;14.00;54.50;14.30;99469.00;;;;339412;28;82540;-86
2022/03/29 00:29:37;;;;;;;;;;;14.00;54.40;14.30;99462.00;;;;337126;28;96177;-86
2022/03/29 00:29:49;;;;;;;;;;;14.00;54.60;14.30;99459.00;;;;339536;28;82445;-87
2022/03/29 00:30:01;;;;;;;;;;;14.00;54.60;14.30;99460.00;;;;338665;28;94271;-86
2022/03/29 00:30:15;;;;;;;;;;;14.00;54.60;14.30;99457.00;;;;338960;28;83528;-85
2022/03/29 00:30:26;;;;;;;;;;;14.00;54.40;14.20;99467.00;;;;338608;28;95405;-86
2022/03/29 00:30:38;;;;;;;;;;;14.00;54.40;14.10;99462.00;;;;340747;28;82461;-86
2022/03/29 00:30:50;;;;;;;;;;;14.00;54.60;14.10;99460.00;;;;337056;28;94146;-86
2022/03/29 00:31:02;;;;;;;;;;;13.90;54.70;14.00;99467.00;;;;338327;28;83400;-85
2022/03/29 00:31:16;;;;;;;;;;;13.90;54.60;14.00;99461.00;;;;337378;28;93167;-86
2022/03/29 00:31:28;;;;;;;;;;;13.90;54.60;14.10;99459.00;;;;340777;28;83463;-85
2022/03/29 00:31:40;;;;;;;;;;;13.90;54.60;14.20;99458.00;;;;339819;28;95820;-86
2022/03/29 00:31:52;;;;;;;;;;;13.90;54.60;14.30;99466.00;;;;340629;28;83433;-86
2022/03/29 00:32:04;;;;;;;;;;;13.90;54.40;14.30;99460.00;;;;341265;28;96474;-86
2022/03/29 00:32:16;;;;;;;;;;;13.90;54.30;14.40;99454.00;;;;339414;28;82486;-85
2022/03/29 00:32:28;;;;;;;;;;;13.90;54.30;14.30;99462.00;;;;338612;28;94396;-86
2022/03/29 00:32:40;;;;;;;;;;;13.90;54.60;14.30;99450.00;;;;340772;28;82441;-86
2022/03/29 00:32:53;;;;;;;;;;;13.90;54.80;14.20;99458.00;;;;338543;28;96206;-85
2022/03/29 00:33:05;;;;;;;;;;;13.90;54.60;14.10;99454.00;;;;342078;28;83436;-86
2022/03/29 00:33:17;;;;;;;;;;;13.90;54.70;14.10;99456.00;;;;341284;28;96847;-86
2022/03/29 00:33:29;;;;;;;;;;;13.90;54.60;14.10;99454.00;;;;340308;28;83588;-86
2022/03/29 00:33:41;;;;;;;;;;;13.90;54.60;14.20;99451.00;;;;339816;28;97472;-86
2022/03/29 00:33:52;;;;;;;;;;;13.90;54.50;14.30;99456.00;;;;340068;28;83531;-86
2022/03/29 00:34:04;;;;;;;;;;;13.90;54.60;14.30;99457.00;;;;337466;28;94949;-86
2022/03/29 00:34:16;;;;;;;;;;;13.90;54.60;14.20;99454.00;;;;340574;28;83299;-85
2022/03/29 00:34:28;;;;;;;;;;;13.90;54.60;14.20;99461.00;;;;339948;28;94598;-86
2022/03/29 00:34:42;;;;;;;;;;;13.90;54.50;14.20;99453.00;;;;340697;28;83861;-86
2022/03/29 00:34:53;;;;;;;;;;;13.90;54.50;14.20;99456.00;;;;338372;28;97754;-86
2022/03/29 00:35:06;;;;;;;;;;;13.90;54.50;14.10;99450.00;;;;340685;28;83488;-86
2022/03/29 00:35:18;;;;;;;;;;;13.90;54.80;14.00;99453.00;;;;340015;28;95737;-86
2022/03/29 00:35:30;;;;;;;;;;;13.90;54.90;14.00;99456.00;;;;339290;28;82567;-86
2022/03/29 00:35:41;;;;;;;;;;;13.80;55.40;14.00;99457.00;;;;339932;28;96397;-86
2022/03/29 00:35:53;;;;;;;;;;;13.80;54.90;14.00;99451.00;;;;340692;28;83450;-86
2022/03/29 00:36:05;;;;;;;;;;;13.80;55.00;13.90;99459.00;;;;337257;28;97315;-86
2022/03/29 00:36:17;;;;;;;;;;;13.80;54.90;14.00;99450.00;;;;340595;28;83551;-86
2022/03/29 00:36:29;;;;;;;;;;;13.80;54.70;14.00;99456.00;;;;339885;28;97774;-86
2022/03/29 00:36:40;;;;;;;;;;;13.80;54.60;14.00;99454.00;;;;340655;28;82449;-86
2022/03/29 00:36:53;;;;;;;;;;;13.80;54.60;14.00;99457.00;;;;340283;28;97152;-85
2022/03/29 00:37:04;;;;;;;;;;;13.80;54.60;14.00;99451.00;;;;339477;28;83503;-86
2022/03/29 00:37:16;;;;;;;;;;;13.80;54.60;14.10;99454.00;;;;337248;28;93034;-85
2022/03/29 00:37:28;;;;;;;;;;;13.80;55.00;14.10;99453.00;;;;337970;28;82471;-85
2022/03/29 00:37:41;;;;;;;;;;;13.80;54.40;14.10;99448.00;;;;338486;28;97299;-86
2022/03/29 00:37:53;;;;;;;;;;;13.80;54.40;14.00;99454.00;;;;341065;28;83601;-86
2022/03/29 00:38:05;;;;;;;;;;;13.80;54.80;14.00;99447.00;;;;338619;28;95655;-86
2022/03/29 00:38:17;;;;;;;;;;;13.80;54.80;14.10;99451.00;;;;340556;28;82585;-86
2022/03/29 00:38:29;;;;;;;;;;;13.80;54.70;14.10;99455.00;;;;341404;28;93151;-86
2022/03/29 00:38:41;;;;;;;;;;;13.80;54.70;14.10;99451.00;;;;340681;28;83555;-87
2022/03/29 00:38:54;;;;;;;;;;;13.80;54.80;14.10;99449.00;;;;342604;28;94083;-85
2022/03/29 00:39:06;;;;;;;;;;;13.80;54.80;14.30;99448.00;;;;341999;28;83656;-86
2022/03/29 00:39:17;;;;;;;;;;;13.80;54.60;14.10;99446.00;;;;341409;28;92613;-86
2022/03/29 00:39:29;;;;;;;;;;;13.80;54.50;14.20;99446.00;;;;342036;28;83455;-86
2022/03/29 00:39:41;;;;;;;;;;;13.80;54.50;14.20;99448.00;;;;341157;28;97078;-86
2022/03/29 00:39:53;;;;;;;;;;;13.80;54.50;14.10;99450.00;;;;339191;28;83685;-86
2022/03/29 00:40:05;;;;;;;;;;;13.80;55.20;14.10;99446.00;;;;337173;28;95866;-86
2022/03/29 00:40:17;;;;;;;;;;;13.80;54.50;14.10;99450.00;;;;338157;28;83305;-86
2022/03/29 00:40:29;;;;;;;;;;;13.80;54.50;14.20;99449.00;;;;338571;28;94328;-86
2022/03/29 00:40:41;;;;;;;;;;;13.80;54.60;14.20;99441.00;;;;339336;28;83295;-86
2022/03/29 00:40:53;;;;;;;;;;;13.80;54.60;14.20;99440.00;;;;338682;28;93269;-86
2022/03/29 00:41:05;;;;;;;;;;;13.80;54.70;14.10;99446.00;;;;339411;28;84011;-86
2022/03/29 00:41:16;;;;;;;;;;;13.80;54.80;14.00;99442.00;;;;338526;28;97045;-87
2022/03/29 00:41:28;;;;;;;;;;;13.80;55.00;14.00;99448.00;;;;340774;28;83390;-86
2022/03/29 00:41:40;;;;;;;;;;;13.80;55.00;14.00;99450.00;;;;338557;28;94412;-86
2022/03/29 00:41:52;;;;;;;;;;;13.80;54.90;14.00;99450.00;;;;339365;28;82397;-86
2022/03/29 00:42:04;;;;;;;;;;;13.80;54.80;14.10;99447.00;;;;337160;28;96866;-86
2022/03/29 00:42:15;;;;;;;;;;;13.70;54.80;14.10;99453.00;;;;340697;28;83378;-84
2022/03/29 00:42:27;;;;;;;;;;;13.80;55.10;14.00;99449.00;;;;338744;28;94960;-86
2022/03/29 00:42:39;;;;;;;;;;;13.70;55.10;13.90;99446.00;;;;340636;28;82513;-86
2022/03/29 00:42:51;;;;;;;;;;;13.70;55.10;14.00;99446.00;;;;337757;28;97185;-85
2022/03/29 00:43:05;;;;;;;;;;;13.70;55.20;14.20;99442.00;;;;339766;28;83229;-85
2022/03/29 00:43:17;;;;;;;;;;;13.70;55.00;14.20;99441.00;;;;338580;28;95552;-86
2022/03/29 00:43:29;;;;;;;;;;;13.80;54.70;14.30;99441.00;;;;338020;28;83467;-86
2022/03/29 00:43:41;;;;;;;;;;;13.70;54.60;14.30;99440.00;;;;334602;29;97028;-86
2022/03/29 00:43:53;;;;;;;;;;;13.80;54.70;14.30;99433.00;;;;338732;28;83519;-87
2022/03/29 00:44:06;;;;;;;;;;;13.80;54.60;14.20;99446.00;;;;338402;28;95642;-86
2022/03/29 00:44:18;;;;;;;;;;;13.80;54.60;14.10;99443.00;;;;340579;28;83550;-86
2022/03/29 00:44:31;;;;;;;;;;;13.80;54.60;14.10;99439.00;;;;338487;28;95928;-86
2022/03/29 00:44:42;;;;;;;;;;;13.80;54.50;14.10;99436.00;;;;340503;28;83526;-86
2022/03/29 00:44:55;;;;;;;;;;;13.80;54.60;14.20;99434.00;;;;339909;28;93911;-86
2022/03/29 00:45:07;;;;;;;;;;;13.80;54.50;14.10;99437.00;;;;340801;28;82444;-86
2022/03/29 00:45:19;;;;;;;;;;;13.70;54.40;14.20;99437.00;;;;338584;28;95700;-86
2022/03/29 00:45:31;;;;;;;;;;;13.70;54.50;14.20;99439.00;;;;340549;28;83362;-87
2022/03/29 00:45:43;;;;;;;;;;;13.80;54.60;14.20;99436.00;;;;338556;28;94024;-87
2022/03/29 00:45:56;;;;;;;;;;;13.80;54.60;14.20;99438.00;;;;336283;28;83533;-87
2022/03/29 00:46:08;;;;;;;;;;;13.70;54.50;14.20;99429.00;;;;337181;28;96203;-87
2022/03/29 00:46:20;;;;;;;;;;;13.80;54.60;14.30;99437.00;;;;338581;28;83519;-86
2022/03/29 00:46:33;;;;;;;;;;;13.80;54.70;14.30;99435.00;;;;338687;28;93868;-86
2022/03/29 00:46:47;;;;;;;;;;;13.80;54.70;14.30;99435.00;;;;337831;28;83431;-85
2022/03/29 00:47:00;;;;;;;;;;;13.80;54.70;14.20;99432.00;;;;338343;28;97698;-86
2022/03/29 00:47:12;;;;;;;;;;;13.80;54.70;14.10;99434.00;;;;342017;28;83466;-87
2022/03/29 00:47:24;;;;;;;;;;;13.80;54.90;14.00;99427.00;;;;338703;28;95088;-85
2022/03/29 00:47:36;;;;;;;;;;;13.80;55.00;14.00;99431.00;;;;339290;28;83338;-87
2022/03/29 00:47:48;;;;;;;;;;;13.80;55.10;14.00;99436.00;;;;338662;28;96071;-86
2022/03/29 00:48:00;;;;;;;;;;;13.70;55.10;14.10;99426.00;;;;339406;28;83350;-86
2022/03/29 00:48:13;;;;;;;;;;;13.70;54.90;14.20;99424.00;;;;338596;28;93926;-86
2022/03/29 00:48:25;;;;;;;;;;;13.70;54.90;14.30;99430.00;;;;339372;28;83455;-86
2022/03/29 00:48:38;;;;;;;;;;;13.80;54.90;14.30;99432.00;;;;337226;28;96189;-86
2022/03/29 00:48:50;;;;;;;;;;;13.80;54.70;14.30;99430.00;;;;336426;28;82629;-86
2022/03/29 00:49:01;;;;;;;;;;;13.80;54.60;14.30;99431.00;;;;338669;28;97652;-86
2022/03/29 00:49:13;;;;;;;;;;;13.80;54.60;14.20;99426.00;;;;342164;28;83542;-86
2022/03/29 00:49:25;;;;;;;;;;;13.80;54.60;14.20;99430.00;;;;337425;28;92347;-87
2022/03/29 00:49:37;;;;;;;;;;;13.80;54.50;14.20;99427.00;;;;337964;28;83845;-86
2022/03/29 00:49:49;;;;;;;;;;;13.80;54.40;14.20;99426.00;;;;337519;28;94560;-86
2022/03/29 00:50:01;;;;;;;;;;;13.80;54.40;14.10;99423.00;;;;339265;28;82518;-86
2022/03/29 00:50:12;;;;;;;;;;;13.80;54.40;14.00;99431.00;;;;339802;28;95575;-86
2022/03/29 00:50:24;;;;;;;;;;;13.80;54.50;14.20;99424.00;;;;340676;28;83457;-86
2022/03/29 00:50:37;;;;;;;;;;;13.80;54.50;14.30;99416.00;;;;337289;28;97185;-86
2022/03/29 00:50:48;;;;;;;;;;;13.80;54.50;14.30;99426.00;;;;339440;28;83415;-86
2022/03/29 00:51:00;;;;;;;;;;;13.80;54.40;14.30;99419.00;;;;338429;28;97958;-86
2022/03/29 00:51:12;;;;;;;;;;;13.80;54.30;14.40;99422.00;;;;339379;28;82484;-86
2022/03/29 00:51:24;;;;;;;;;;;13.80;54.20;14.40;99414.00;;;;337457;28;93039;-86
2022/03/29 00:51:35;;;;;;;;;;;13.80;54.10;14.30;99427.00;;;;337932;28;84148;-85
2022/03/29 00:51:47;;;;;;;;;;;13.80;54.20;14.10;99418.00;;;;338296;28;97665;-86
2022/03/29 00:52:01;;;;;;;;;;;13.80;54.40;14.00;99429.00;;;;340050;28;82415;-85
2022/03/29 00:52:13;;;;;;;;;;;13.80;54.60;14.00;99429.00;;;;337279;28;94681;-86
2022/03/29 00:52:25;;;;;;;;;;;13.80;54.60;14.10;99421.00;;;;339451;28;82623;-87
2022/03/29 00:52:38;;;;;;;;;;;13.80;54.50;14.10;99421.00;;;;337225;28;97745;-85
2022/03/29 00:52:49;;;;;;;;;;;13.80;54.40;14.10;99426.00;;;;339234;28;83414;-86
2022/03/29 00:53:02;;;;;;;;;;;13.80;54.60;14.10;99413.00;;;;338549;28;94988;-86
2022/03/29 00:53:13;;;;;;;;;;;13.80;54.30;14.00;99413.00;;;;340640;28;83359;-87
2022/03/29 00:53:25;;;;;;;;;;;13.80;53.90;13.90;99422.00;;;;339870;28;91815;-85
2022/03/29 00:53:38;;;;;;;;;;;13.80;53.90;13.80;99417.00;;;;339237;28;83473;-86
2022/03/29 00:53:50;;;;;;;;;;;13.70;53.90;13.80;99416.00;;;;339851;28;97472;-87
2022/03/29 00:54:01;;;;;;;;;;;13.70;54.10;13.90;99420.00;;;;338128;28;83348;-86
2022/03/29 00:54:13;;;;;;;;;;;13.70;54.10;13.80;99413.00;;;;338657;28;93906;-86
2022/03/29 00:54:28;;;;;;;;;;;13.70;54.10;13.70;99425.00;;;;339479;28;83417;-85
2022/03/29 00:54:43;;;;;;;;;;;13.70;53.80;13.80;99412.00;;;;338531;28;96027;-87
2022/03/29 00:54:55;;;;;;;;;;;13.70;53.60;13.80;99415.00;;;;340298;28;83364;-85
2022/03/29 00:55:07;;;;;;;;;;;13.70;53.70;13.80;99414.00;;;;339658;28;96784;-86
2022/03/29 00:55:19;;;;;;;;;;;13.60;53.60;13.90;99418.00;;;;336620;28;83414;-86
2022/03/29 00:55:31;;;;;;;;;;;13.60;53.50;13.80;99408.00;;;;338694;28;93479;-85
2022/03/29 00:55:43;;;;;;;;;;;13.60;53.50;13.70;99415.00;;;;340550;28;83543;-87
2022/03/29 00:55:55;;;;;;;;;;;13.70;53.60;13.70;99416.00;;;;340130;28;94106;-85
2022/03/29 00:56:07;;;;;;;;;;;13.60;53.60;13.80;99417.00;;;;340443;28;83379;-86
2022/03/29 00:56:21;;;;;;;;;;;13.60;53.70;13.70;99414.00;;;;339729;28;96343;-86
2022/03/29 00:56:33;;;;;;;;;;;13.60;53.60;13.70;99417.00;;;;340722;28;83390;-86
2022/03/29 00:56:45;;;;;;;;;;;13.60;53.40;13.70;99414.00;;;;341175;28;97305;-86
2022/03/29 00:56:57;;;;;;;;;;;13.60;53.30;13.70;99412.00;;;;340652;28;82539;-85
2022/03/29 00:57:11;;;;;;;;;;;13.60;53.30;13.80;99415.00;;;;338636;28;92976;-86
2022/03/29 00:57:25;;;;;;;;;;;13.60;53.20;13.90;99408.00;;;;340743;28;83600;-86
2022/03/29 00:57:37;;;;;;;;;;;13.60;53.40;13.70;99412.00;;;;338518;28;95881;-84
2022/03/29 00:57:49;;;;;;;;;;;13.60;53.90;13.70;99413.00;;;;339241;28;83875;-86
2022/03/29 00:58:06;;;;;;;;;;;13.50;53.40;13.70;99413.00;;;;338671;28;93353;-86
2022/03/29 00:58:18;;;;;;;;;;;13.50;53.40;13.60;99412.00;;;;338754;28;82476;-85
2022/03/29 00:58:30;;;;;;;;;;;13.50;53.40;13.70;99412.00;;;;341362;28;93866;-86
2022/03/29 00:58:42;;;;;;;;;;;13.50;53.40;13.80;99410.00;;;;339403;28;82406;-87
2022/03/29 00:58:53;;;;;;;;;;;13.50;53.30;13.80;99411.00;;;;338381;28;95867;-86
2022/03/29 00:59:05;;;;;;;;;;;13.50;53.20;13.80;99414.00;;;;339393;28;82557;-86
2022/03/29 00:59:18;;;;;;;;;;;13.50;53.20;13.90;99414.00;;;;339837;28;94272;-86
2022/03/29 00:59:29;;;;;;;;;;;13.50;53.30;14.00;99416.00;;;;340853;28;83447;-86
2022/03/29 00:59:43;;;;;;;;;;;13.50;53.20;13.90;99407.00;;;;341277;28;94641;-86